Sirius — V7KI6 — position and weather

sailwx.info

Track history (hours):
 
Tides and Currents Weather Stations Pressure Air Temp Water Temp Dewpoint Dewpoint Depression Visibility Wind Speed Wind Dir Waves Ship Positions

Sirius

Last reported at 2015-May-24 13:28 UTC. Time now 2015-May-25 11:37 UTC.
Position N 34°40' E 024°46'.

Length 178.1 m; beam 28.2 m; draft 11.5 m.

Type: Cargo ship. MMSI: 538090245.

Date/timePositionNaut miles runAvg speedWind from/ knotsBaromVisibWave heightAir tempDewpointWater temp
2015-May-24 13:28N 34°40' E 024°46'2017.2
2015-May-24 12:18N 34°40' E 024°22'47217.5
2015-May-23 09:21N 35°45' E 014°49'910.7
2015-May-23 08:30N 35°46' E 014°38'5 0.2
2015-May-21 22:17N 35°49' E 014°32'0 0.0
2015-May-21 21:26N 35°49' E 014°32'0 0.0
2015-May-21 17:24N 35°49' E 014°32'3 3.6
2015-May-21 16:33N 35°48' E 014°36'3 2.8
2015-May-21 15:33N 35°46' E 014°38'1 0.9
2015-May-21 14:29N 35°47' E 014°38'6 6.5
2015-May-21 13:33N 35°44' E 014°45'1817.6
2015-May-21 12:33N 35°39' E 015°06'1717.4
2015-May-21 11:33N 35°33' E 015°26'8816.8
2015-May-21 06:20N 35°03' E 017°08'15417.0
2015-May-20 21:14N 34°12' E 020°04'52410.3
2015-May-18 18:32N 31°09' E 029°48'29 1.7
2015-May-18 01:28N 31°34' E 030°03'1717.1
2015-May-18 00:28N 31°41' E 030°22'1717.4
2015-May-17 23:28N 31°45' E 030°42'1617.4
2015-May-17 22:33N 31°50' E 030°59'4313.2
2015-May-17 19:16N 31°33' E 031°46'5 7.3
2015-May-17 18:34N 31°28' E 031°46'0 0.2
2015-May-17 17:33N 31°28' E 031°46'0 0.0
2015-May-17 16:21N 31°28' E 031°46'0 0.0
2015-May-17 15:33N 31°28' E 031°46'6 6.1
2015-May-17 14:33N 31°34' E 031°46'3 3.2
2015-May-17 13:32N 31°37' E 031°48'2 0.2
2015-May-17 06:32N 31°37' E 031°46'20 2.2
2015-May-16 21:28N 31°36' E 032°10'25 6.2
2015-May-16 17:26N 31°13' E 032°21'2 1.1
2015-May-16 15:15N 31°15' E 032°22'6 8.2
2015-May-16 14:33N 31°21' E 032°22'1312.8
2015-May-16 13:33N 31°34' E 032°20'1918.1
2015-May-16 12:29N 31°47' E 032°37'1819.8
2015-May-16 11:33N 32°04' E 032°45'2119.5
2015-May-16 10:29N 32°23' E 032°55'1718.7
2015-May-16 09:34N 32°39' E 033°03'1918.8
2015-May-16 08:33N 32°56' E 033°13'1918.8
2015-May-16 07:34N 33°13' E 033°22'1717.2
2015-May-16 06:34N 33°29' E 033°31'1916.9
2015-May-16 05:27N 33°46' E 033°40'1816.6
2015-May-16 04:20N 34°03' E 033°49'  
Track history (hours):
 
Tides and Currents Weather Stations Pressure Air Temp Water Temp Dewpoint Dewpoint Depression Visibility Wind Speed Wind Dir Waves Ship Positions

Sirius

Last reported at 2015-May-24 13:28 UTC. Time now 2015-May-25 11:37 UTC.
Position N 34°40' E 024°46'.

Length 178.1 m; beam 28.2 m; draft 11.5 m.

Type: Cargo ship. MMSI: 538090245.

Date/timePositionNaut miles runAvg speedWind from/ knotsBaromVisibWave heightAir tempDewpointWater temp
2015-May-24 13:28N 34°40' E 024°46'2017.2
2015-May-24 12:18N 34°40' E 024°22'47217.5
2015-May-23 09:21N 35°45' E 014°49'910.7
2015-May-23 08:30N 35°46' E 014°38'5 0.2
2015-May-21 22:17N 35°49' E 014°32'0 0.0
2015-May-21 21:26N 35°49' E 014°32'0 0.0
2015-May-21 17:24N 35°49' E 014°32'3 3.6
2015-May-21 16:33N 35°48' E 014°36'3 2.8
2015-May-21 15:33N 35°46' E 014°38'1 0.9
2015-May-21 14:29N 35°47' E 014°38'6 6.5
2015-May-21 13:33N 35°44' E 014°45'1817.6
2015-May-21 12:33N 35°39' E 015°06'1717.4
2015-May-21 11:33N 35°33' E 015°26'8816.8
2015-May-21 06:20N 35°03' E 017°08'15417.0
2015-May-20 21:14N 34°12' E 020°04'52410.3
2015-May-18 18:32N 31°09' E 029°48'29 1.7
2015-May-18 01:28N 31°34' E 030°03'1717.1
2015-May-18 00:28N 31°41' E 030°22'1717.4
2015-May-17 23:28N 31°45' E 030°42'1617.4
2015-May-17 22:33N 31°50' E 030°59'4313.2
2015-May-17 19:16N 31°33' E 031°46'5 7.3
2015-May-17 18:34N 31°28' E 031°46'0 0.2
2015-May-17 17:33N 31°28' E 031°46'0 0.0
2015-May-17 16:21N 31°28' E 031°46'0 0.0
2015-May-17 15:33N 31°28' E 031°46'6 6.1
2015-May-17 14:33N 31°34' E 031°46'3 3.2
2015-May-17 13:32N 31°37' E 031°48'2 0.2
2015-May-17 06:32N 31°37' E 031°46'20 2.2
2015-May-16 21:28N 31°36' E 032°10'25 6.2
2015-May-16 17:26N 31°13' E 032°21'2 1.1
2015-May-16 15:15N 31°15' E 032°22'6 8.2
2015-May-16 14:33N 31°21' E 032°22'1312.8
2015-May-16 13:33N 31°34' E 032°20'1918.1
2015-May-16 12:29N 31°47' E 032°37'1819.8
2015-May-16 11:33N 32°04' E 032°45'2119.5
2015-May-16 10:29N 32°23' E 032°55'1718.7
2015-May-16 09:34N 32°39' E 033°03'1918.8
2015-May-16 08:33N 32°56' E 033°13'1918.8
2015-May-16 07:34N 33°13' E 033°22'1717.2
2015-May-16 06:34N 33°29' E 033°31'1916.9
2015-May-16 05:27N 33°46' E 033°40'1816.6
2015-May-16 04:20N 34°03' E 033°49'  

Dump ship's entire track history